createdAt,value
2022-11-24T00:00:21.924Z,42.04
2022-11-24T00:03:28.862Z,42.75
2022-11-24T00:06:38.018Z,41.48
2022-11-24T00:09:45.176Z,41.66
2022-11-24T00:12:51.174Z,43.67
2022-11-24T00:16:09.169Z,44.59
2022-11-24T00:19:19.553Z,43.66
2022-11-24T00:22:26.999Z,43.43
2022-11-24T00:25:33.141Z,42.33
2022-11-24T00:28:42.339Z,44.30
2022-11-24T00:31:51.341Z,45.40
2022-11-24T00:34:58.318Z,42.96
2022-11-24T00:38:04.301Z,45.96
2022-11-24T00:41:11.684Z,45.99
2022-11-24T00:44:17.680Z,45.14
2022-11-24T00:47:29.089Z,46.81
2022-11-24T00:50:35.113Z,47.19
2022-11-24T00:53:42.628Z,46.43
2022-11-24T00:56:48.574Z,51.49
2022-11-24T00:59:55.431Z,52.98
2022-11-24T01:03:04.115Z,52.81
2022-11-24T01:06:13.972Z,53.86
2022-11-24T01:09:19.955Z,52.94
2022-11-24T01:12:26.832Z,50.76
2022-11-24T01:15:33.177Z,48.23
2022-11-24T01:18:42.608Z,49.98
2022-11-24T01:21:49.431Z,47.16
2022-11-24T01:24:56.491Z,47.88
2022-11-24T01:28:02.439Z,46.20
2022-11-24T01:31:11.638Z,48.09
2022-11-24T01:34:20.496Z,50.47
2022-11-24T01:37:27.310Z,51.57
2022-11-24T01:40:33.259Z,47.97
2022-11-24T01:43:41.178Z,52.57
2022-11-24T01:46:55.593Z,50.35
2022-11-24T01:50:08.986Z,49.73
2022-11-24T01:53:17.889Z,46.89
2022-11-24T01:56:24.914Z,47.34
2022-11-24T01:59:32.243Z,46.80
2022-11-24T02:02:39.760Z,48.54
2022-11-24T02:05:58.949Z,49.17
2022-11-24T02:09:16.470Z,48.46
2022-11-24T02:12:22.850Z,50.09
2022-11-24T02:15:31.112Z,49.11
2022-11-24T02:18:37.918Z,47.99
2022-11-24T02:21:47.693Z,51.32
2022-11-24T02:25:05.642Z,50.65
2022-11-24T02:28:21.891Z,52.56
2022-11-24T02:31:28.176Z,51.21
2022-11-24T02:34:35.310Z,52.77
2022-11-24T02:37:41.766Z,55.98
2022-11-24T02:40:52.806Z,53.30
2022-11-24T02:44:05.302Z,53.56
2022-11-24T02:47:15.333Z,58.43
2022-11-24T02:50:21.511Z,64.42
2022-11-24T02:53:28.284Z,51.97
2022-11-24T02:56:34.282Z,55.02
2022-11-24T02:59:43.722Z,54.14
2022-11-24T03:02:49.853Z,53.36
2022-11-24T03:05:56.973Z,56.00
2022-11-24T03:09:03.061Z,59.06
2022-11-24T03:12:10.763Z,59.67
2022-11-24T03:15:19.616Z,52.96
2022-11-24T03:18:26.414Z,48.82
2022-11-24T03:21:32.701Z,50.32
2022-11-24T03:24:39.599Z,54.00
2022-11-24T03:27:45.617Z,55.96
2022-11-24T03:30:55.028Z,54.43
2022-11-24T03:34:01.181Z,55.25
2022-11-24T03:37:09.246Z,50.29
2022-11-24T03:40:16.023Z,49.36
2022-11-24T03:43:23.233Z,54.23
2022-11-24T03:46:31.876Z,64.34
2022-11-24T03:49:38.586Z,69.28
2022-11-24T03:52:44.547Z,67.08
2022-11-24T03:55:51.360Z,67.64
2022-11-24T03:58:57.396Z,69.29
2022-11-24T04:02:06.873Z,73.98
2022-11-24T04:05:13.220Z,67.79
2022-11-24T04:08:21.288Z,68.59
2022-11-24T04:11:39.698Z,70.65
2022-11-24T04:14:46.409Z,75.00
2022-11-24T04:17:57.608Z,76.60
2022-11-24T04:21:04.602Z,72.44
2022-11-24T04:24:10.907Z,79.53
2022-11-24T04:27:18.289Z,79.74
2022-11-24T04:30:26.586Z,67.92
2022-11-24T04:33:36.774Z,73.01
2022-11-24T04:36:42.832Z,75.68
2022-11-24T04:39:49.613Z,77.82
2022-11-24T04:42:59.947Z,75.91
2022-11-24T04:46:06.834Z,76.62
2022-11-24T04:49:15.539Z,71.33
2022-11-24T04:52:24.955Z,71.42
2022-11-24T04:55:30.945Z,73.34
2022-11-24T04:58:37.753Z,60.05
2022-11-24T05:01:44.219Z,62.82
2022-11-24T05:04:54.222Z,63.51
2022-11-24T05:08:02.545Z,63.73
2022-11-24T05:11:10.927Z,67.56
2022-11-24T05:14:16.811Z,65.90
2022-11-24T05:17:23.745Z,78.09
2022-11-24T05:20:32.242Z,83.58
2022-11-24T05:23:39.692Z,69.25
2022-11-24T05:26:45.636Z,81.60
2022-11-24T05:29:52.655Z,79.76
2022-11-24T05:32:58.607Z,83.01
2022-11-24T05:36:30.816Z,72.57
2022-11-24T05:39:37.863Z,69.76
2022-11-24T05:42:47.554Z,68.92
2022-11-24T05:45:54.136Z,67.60
2022-11-24T05:49:01.004Z,66.29
2022-11-24T05:52:09.641Z,66.52
2022-11-24T05:55:19.718Z,68.25
2022-11-24T05:58:25.683Z,68.30
2022-11-24T06:01:32.435Z,69.85
2022-11-24T06:04:38.526Z,74.54
2022-11-24T06:07:48.123Z,77.13
2022-11-24T06:10:54.122Z,81.66
2022-11-24T06:14:00.888Z,89.30
2022-11-24T06:17:08.075Z,85.85
2022-11-24T06:20:15.415Z,80.75
2022-11-24T06:23:23.840Z,73.17
2022-11-24T06:26:30.585Z,67.52
2022-11-24T06:29:36.392Z,66.50
2022-11-24T06:32:49.399Z,75.05
2022-11-24T06:35:55.922Z,81.71
2022-11-24T06:39:08.847Z,85.92
2022-11-24T06:42:18.793Z,79.36
2022-11-24T06:45:25.615Z,71.08
2022-11-24T06:48:32.747Z,74.51
2022-11-24T06:51:39.809Z,69.91
2022-11-24T06:54:48.256Z,71.17
2022-11-24T06:57:54.986Z,74.06
2022-11-24T07:01:01.089Z,75.55
2022-11-24T07:04:08.200Z,84.60
2022-11-24T07:07:14.214Z,76.41
2022-11-24T07:10:23.673Z,70.03
2022-11-24T07:13:29.526Z,85.07
2022-11-24T07:16:37.361Z,78.13
2022-11-24T07:19:43.286Z,76.33
2022-11-24T07:22:50.193Z,78.20
2022-11-24T07:26:02.392Z,80.38
2022-11-24T07:29:13.320Z,72.70
2022-11-24T07:32:19.252Z,66.12
2022-11-24T07:35:26.738Z,60.20
2022-11-24T07:38:33.997Z,61.15
2022-11-24T07:41:43.333Z,79.52
2022-11-24T07:44:49.447Z,99.42
2022-11-24T07:47:56.184Z,66.51
2022-11-24T07:51:03.531Z,63.01
2022-11-24T07:54:10.836Z,65.31
2022-11-24T07:57:19.312Z,70.74
2022-11-24T08:00:27.342Z,76.57
2022-11-24T08:03:33.257Z,66.47
2022-11-24T08:06:44.663Z,72.56
2022-11-24T08:09:53.360Z,71.94
2022-11-24T08:13:06.283Z,67.58
2022-11-24T08:16:16.302Z,65.81
2022-11-24T08:19:24.672Z,65.50
2022-11-24T08:22:30.644Z,63.72
2022-11-24T08:25:37.353Z,67.67
2022-11-24T08:28:47.007Z,67.06
2022-11-24T08:31:53.767Z,68.84
2022-11-24T08:35:13.224Z,66.91
2022-11-24T08:38:20.548Z,62.96
2022-11-24T08:41:27.931Z,65.79
2022-11-24T08:44:37.400Z,67.21
2022-11-24T08:47:43.449Z,61.99
2022-11-24T08:50:50.218Z,64.98
2022-11-24T08:53:58.870Z,65.95
2022-11-24T08:57:05.634Z,71.27
2022-11-24T09:00:22.331Z,77.58
2022-11-24T09:03:29.664Z,70.98
2022-11-24T09:06:35.546Z,65.85
2022-11-24T09:09:42.264Z,65.59
2022-11-24T09:12:49.330Z,62.01
2022-11-24T09:15:59.579Z,63.69
2022-11-24T09:19:09.539Z,66.37
2022-11-24T09:22:16.270Z,61.73
2022-11-24T09:25:23.788Z,63.20
2022-11-24T09:28:30.789Z,65.18
2022-11-24T09:31:42.167Z,66.78
2022-11-24T09:34:48.976Z,70.71
2022-11-24T09:37:54.842Z,69.94
2022-11-24T09:41:41.219Z,70.93
2022-11-24T09:45:26.327Z,71.44
2022-11-24T09:48:53.605Z,74.68
2022-11-24T09:52:04.488Z,74.60
2022-11-24T09:55:37.934Z,74.37
2022-11-24T09:58:51.450Z,75.44
2022-11-24T10:01:58.743Z,72.73
2022-11-24T10:05:09.851Z,73.49
2022-11-24T10:08:48.032Z,72.03
2022-11-24T10:12:16.150Z,70.97
2022-11-24T10:15:45.205Z,74.84
2022-11-24T10:19:16.077Z,67.07
2022-11-24T10:22:48.709Z,65.32
2022-11-24T10:26:01.222Z,59.83
2022-11-24T10:29:29.290Z,61.94
2022-11-24T10:32:47.065Z,57.45
2022-11-24T10:36:05.207Z,57.02
2022-11-24T10:39:26.792Z,61.23
2022-11-24T10:42:37.557Z,61.96
2022-11-24T10:45:44.504Z,62.85
2022-11-24T10:49:00.153Z,66.65
2022-11-24T10:52:16.312Z,65.82
2022-11-24T10:55:25.775Z,63.65
2022-11-24T10:58:37.623Z,63.36
2022-11-24T11:01:44.934Z,62.37
2022-11-24T11:04:50.865Z,60.51
2022-11-24T11:08:20.891Z,60.78
2022-11-24T11:11:32.983Z,55.84
2022-11-24T11:14:39.786Z,51.93
2022-11-24T11:17:50.559Z,51.41
2022-11-24T11:21:02.090Z,49.90
2022-11-24T11:24:19.479Z,48.74
2022-11-24T11:27:30.962Z,50.89
2022-11-24T11:34:23.739Z,49.48
2022-11-24T11:37:37.406Z,50.05
2022-11-24T11:40:45.707Z,51.93
2022-11-24T11:44:14.984Z,56.61
2022-11-24T11:47:32.311Z,57.66
2022-11-24T11:54:39.253Z,57.35
2022-11-24T11:58:04.122Z,55.94
2022-11-24T12:01:41.445Z,52.92
2022-11-24T12:04:56.854Z,70.50
2022-11-24T12:08:43.952Z,79.07
2022-11-24T12:12:28.711Z,79.10
2022-11-24T12:15:45.512Z,69.68
2022-11-24T12:19:18.795Z,84.85
2022-11-24T12:22:41.816Z,87.05
2022-11-24T12:26:01.842Z,78.77
2022-11-24T12:29:48.495Z,69.56
2022-11-24T12:33:20.260Z,67.77
2022-11-24T12:36:55.332Z,83.56
2022-11-24T12:40:16.231Z,84.48
2022-11-24T12:43:35.778Z,64.88
2022-11-24T12:46:59.450Z,59.54
2022-11-24T12:50:17.095Z,57.91
2022-11-24T12:53:31.594Z,55.99
2022-11-24T12:56:48.413Z,51.33
2022-11-24T13:00:09.022Z,50.92
2022-11-24T13:03:35.353Z,50.80
2022-11-24T13:06:56.382Z,49.08
2022-11-24T13:14:08.164Z,49.94
2022-11-24T13:21:00.353Z,57.17
2022-11-24T13:24:26.084Z,56.86
2022-11-24T13:27:46.514Z,53.96
2022-11-24T13:31:13.662Z,52.28
2022-11-24T13:34:57.597Z,48.48
2022-11-24T13:38:05.564Z,45.23
2022-11-24T13:41:28.293Z,46.67
2022-11-24T13:44:55.399Z,49.07
2022-11-24T13:48:01.327Z,50.36
2022-11-24T13:51:27.362Z,55.93
2022-11-24T13:54:34.266Z,59.51
2022-11-24T13:57:46.158Z,53.11
2022-11-24T14:01:15.993Z,61.50
2022-11-24T14:04:30.993Z,59.19
2022-11-24T14:07:38.099Z,56.36
2022-11-24T14:10:46.457Z,54.12
2022-11-24T14:13:52.440Z,54.11
2022-11-24T14:17:23.568Z,54.52
2022-11-24T14:20:31.433Z,56.00
2022-11-24T14:23:44.511Z,56.07
2022-11-24T14:26:51.143Z,58.47
2022-11-24T14:30:01.235Z,71.19
2022-11-24T14:33:16.195Z,78.27
2022-11-24T14:36:23.020Z,72.68
2022-11-24T14:39:33.289Z,75.30
2022-11-24T14:42:41.190Z,68.47
2022-11-24T14:45:54.156Z,73.94
2022-11-24T14:49:04.452Z,67.47
2022-11-24T14:52:19.780Z,71.16
2022-11-24T14:55:31.680Z,68.16
2022-11-24T14:58:42.252Z,70.93
2022-11-24T15:01:49.756Z,80.51
2022-11-24T15:05:04.900Z,81.90
2022-11-24T15:08:18.621Z,91.25
2022-11-24T15:11:24.983Z,86.13
2022-11-24T15:14:53.200Z,101.84
2022-11-24T15:18:02.720Z,118.28
2022-11-24T15:21:18.967Z,97.80
2022-11-24T15:24:25.301Z,119.98
2022-11-24T15:27:32.767Z,124.10
2022-11-24T15:30:41.339Z,108.03
2022-11-24T15:33:48.275Z,101.20
2022-11-24T15:36:56.836Z,104.66
2022-11-24T15:40:03.706Z,121.84
2022-11-24T15:43:31.263Z,119.17
2022-11-24T15:46:40.644Z,100.57
2022-11-24T15:49:46.730Z,97.46
2022-11-24T15:52:56.365Z,142.16
2022-11-24T15:56:05.395Z,159.44
2022-11-24T15:59:21.212Z,133.74
2022-11-24T16:02:27.542Z,142.03
2022-11-24T16:05:36.226Z,125.82
2022-11-24T16:08:44.857Z,98.59
2022-11-24T16:11:51.725Z,90.93
2022-11-24T16:14:57.697Z,106.39
2022-11-24T16:18:04.878Z,103.88
2022-11-24T16:21:13.446Z,105.94
2022-11-24T16:24:22.984Z,110.49
2022-11-24T16:27:29.111Z,105.47
2022-11-24T16:30:35.911Z,107.08
2022-11-24T16:33:44.910Z,110.95
2022-11-24T16:36:52.144Z,104.27
2022-11-24T16:40:02.674Z,102.91
2022-11-24T16:43:09.625Z,110.28
2022-11-24T16:46:22.829Z,95.35
2022-11-24T16:49:29.726Z,85.80
2022-11-24T16:52:35.767Z,88.92
2022-11-24T16:55:45.451Z,105.75
2022-11-24T16:58:51.643Z,97.49
2022-11-24T17:01:59.312Z,95.94
2022-11-24T17:05:05.956Z,89.81
2022-11-24T17:08:12.914Z,91.60
2022-11-24T17:11:24.704Z,111.46
2022-11-24T17:14:31.835Z,111.34
2022-11-24T17:17:55.158Z,102.05
2022-11-24T17:21:09.717Z,97.45
2022-11-24T17:24:18.292Z,92.55
2022-11-24T17:27:27.683Z,107.64
2022-11-24T17:30:33.780Z,99.34
2022-11-24T17:33:40.982Z,119.30
2022-11-24T17:36:47.300Z,157.68
2022-11-24T17:40:20.315Z,91.98
2022-11-24T17:43:22.882Z,107.35
2022-11-24T17:46:32.912Z,92.66
2022-11-24T17:49:39.049Z,90.42
2022-11-24T17:52:45.918Z,94.03
2022-11-24T17:55:52.033Z,100.75
2022-11-24T17:59:03.454Z,135.49
2022-11-24T18:02:09.809Z,157.94
2022-11-24T18:05:17.019Z,133.39
2022-11-24T18:08:24.472Z,206.48
2022-11-24T18:11:33.836Z,129.99
2022-11-24T18:14:42.600Z,174.69
2022-11-24T18:17:51.232Z,309.01
2022-11-24T18:20:58.522Z,221.87
2022-11-24T18:24:05.659Z,193.69
2022-11-24T18:27:11.862Z,231.81
2022-11-24T18:30:21.889Z,92.97
2022-11-24T18:33:28.111Z,82.21
2022-11-24T18:36:36.547Z,85.93
2022-11-24T18:39:43.858Z,86.04
2022-11-24T18:42:50.980Z,86.37
2022-11-24T18:46:00.428Z,109.20
2022-11-24T18:49:10.782Z,140.99
2022-11-24T18:52:16.950Z,106.24
2022-11-24T18:55:24.036Z,95.20
2022-11-24T18:58:32.924Z,89.60
2022-11-24T19:01:43.114Z,91.37
2022-11-24T19:04:49.509Z,109.10
2022-11-24T19:07:56.583Z,110.27
2022-11-24T19:11:03.766Z,112.10
2022-11-24T19:14:16.022Z,116.67
2022-11-24T19:17:24.776Z,115.81
2022-11-24T19:20:32.043Z,114.42
2022-11-24T19:23:38.009Z,111.01
2022-11-24T19:26:45.608Z,97.78
2022-11-24T19:29:51.688Z,94.45
2022-11-24T19:33:01.259Z,98.65
2022-11-24T19:36:14.396Z,100.64
2022-11-24T19:39:22.077Z,96.28
2022-11-24T19:42:28.663Z,94.60
2022-11-24T19:45:35.746Z,101.22
2022-11-24T19:48:47.429Z,95.09
2022-11-24T19:52:00.242Z,92.36
2022-11-24T19:55:07.690Z,92.80
2022-11-24T19:58:14.700Z,92.40
2022-11-24T20:01:25.058Z,94.60
2022-11-24T20:04:38.614Z,94.47
2022-11-24T20:07:44.798Z,95.50
2022-11-24T20:10:51.992Z,97.36
2022-11-24T20:13:59.264Z,90.97
2022-11-24T20:17:06.926Z,90.62
2022-11-24T20:20:16.729Z,90.73
2022-11-24T20:23:23.720Z,91.93
2022-11-24T20:26:34.328Z,91.64
2022-11-24T20:29:46.623Z,89.47
2022-11-24T20:32:53.018Z,87.17
2022-11-24T20:36:07.823Z,90.27
2022-11-24T20:39:19.435Z,90.94
2022-11-24T20:42:27.267Z,88.70
2022-11-24T20:45:33.673Z,100.95
2022-11-24T20:48:42.211Z,95.21
2022-11-24T20:51:54.768Z,105.31
2022-11-24T20:55:04.127Z,118.91
2022-11-24T20:58:10.119Z,138.17
2022-11-24T21:01:20.686Z,137.25
2022-11-24T21:04:29.814Z,148.21
2022-11-24T21:07:57.632Z,141.38
2022-11-24T21:11:04.042Z,158.33
2022-11-24T21:14:12.640Z,166.38
2022-11-24T21:17:19.410Z,151.25
2022-11-24T21:20:28.017Z,135.32
2022-11-24T21:23:37.228Z,139.13
2022-11-24T21:26:47.765Z,146.53
2022-11-24T21:29:53.836Z,147.51
2022-11-24T21:33:00.744Z,152.46
2022-11-24T21:36:09.069Z,160.08
2022-11-24T21:39:19.288Z,160.21
2022-11-24T21:42:25.331Z,197.23
2022-11-24T21:45:32.556Z,201.42
2022-11-24T21:48:40.650Z,192.87
2022-11-24T21:51:47.555Z,187.60
2022-11-24T21:54:56.206Z,186.01
2022-11-24T21:58:03.031Z,183.63
2022-11-24T22:01:11.759Z,185.34
2022-11-24T22:04:18.884Z,195.71
2022-11-24T22:07:24.828Z,206.05
2022-11-24T22:10:34.189Z,208.20
2022-11-24T22:13:40.964Z,194.50
2022-11-24T22:16:48.041Z,185.42
2022-11-24T22:19:54.136Z,166.05
2022-11-24T22:23:01.018Z,161.98
2022-11-24T22:26:14.709Z,157.68
2022-11-24T22:29:21.522Z,153.35
2022-11-24T22:32:30.031Z,153.30
2022-11-24T22:35:37.023Z,152.96
2022-11-24T22:38:44.089Z,148.96
2022-11-24T22:41:53.632Z,146.92
2022-11-24T22:44:59.589Z,151.51
2022-11-24T22:48:06.461Z,166.06
2022-11-24T22:51:15.742Z,173.69
2022-11-24T22:54:22.715Z,167.97
2022-11-24T22:57:31.309Z,157.80
2022-11-24T23:00:38.124Z,155.42
2022-11-24T23:03:45.504Z,186.92
2022-11-24T23:06:52.347Z,167.73
2022-11-24T23:09:58.269Z,147.31
2022-11-24T23:13:07.749Z,140.26
2022-11-24T23:16:18.084Z,135.05
2022-11-24T23:19:24.967Z,135.89
2022-11-24T23:22:30.860Z,136.19
2022-11-24T23:25:37.695Z,136.54
2022-11-24T23:28:46.547Z,137.71
2022-11-24T23:31:53.402Z,146.82
2022-11-24T23:34:59.346Z,153.78
2022-11-24T23:38:07.667Z,151.80
2022-11-24T23:41:17.353Z,156.94
2022-11-24T23:44:26.834Z,148.90
2022-11-24T23:47:32.748Z,158.17
2022-11-24T23:50:39.573Z,175.37
2022-11-24T23:53:46.761Z,175.00
2022-11-24T23:56:53.549Z,162.55
